Terminal Aerodrome Forecast
Issued by NWS Sterling, VA

Home | Current Version | Previous Version | Text Only | Print | Product List | Glossary On
Versions: 1 2 3 4 5 6 7 8 9 10 11 12
883
FTUS41 KLWX 280530
TAFCHO
TAF
KCHO 280530Z 2806/2906 21004KT P6SM SKC
     FM280700 20004KT P6SM FEW250
     FM281000 VRB03KT 6SM BR FEW250
     FM281300 20004KT P6SM FEW250
     FM281900 17008KT P6SM SCT250
     FM290200 17004KT P6SM FEW200
     FM290500 00000KT P6SM SCT150=

USA.gov is the U.S. government's official web portal to all federal, state and local government web resources and services.